createdAt,value
2023-01-17T00:02:21.464Z,26.60
2023-01-17T00:05:14.958Z,31.90
2023-01-17T00:08:01.073Z,31.10
2023-01-17T00:10:29.135Z,40.25
2023-01-17T00:13:01.002Z,28.80
2023-01-17T00:15:30.976Z,26.90
2023-01-17T00:17:59.160Z,33.58
2023-01-17T00:20:48.173Z,57.83
2023-01-17T00:23:42.075Z,61.78
2023-01-17T00:26:18.322Z,39.90
2023-01-17T00:28:46.687Z,36.30
2023-01-17T00:31:15.213Z,31.55
2023-01-17T00:33:43.061Z,23.52
2023-01-17T00:36:11.542Z,24.70
2023-01-17T00:38:40.295Z,25.65
2023-01-17T00:41:15.213Z,26.45
2023-01-17T00:44:01.440Z,33.83
2023-01-17T00:46:47.257Z,64.00
2023-01-17T00:49:33.392Z,42.40
2023-01-17T00:52:19.886Z,29.30
2023-01-17T00:55:05.807Z,27.45
2023-01-17T00:57:51.422Z,19.37
2023-01-17T01:00:38.145Z,21.98
2023-01-17T01:03:30.230Z,28.15
2023-01-17T01:06:16.847Z,34.90
2023-01-17T01:09:02.483Z,37.08
2023-01-17T01:11:49.148Z,45.80
2023-01-17T01:14:34.787Z,48.50
2023-01-17T01:17:21.220Z,57.88
2023-01-17T01:20:07.222Z,38.22
2023-01-17T01:22:53.364Z,31.75
2023-01-17T01:25:39.149Z,40.67
2023-01-17T01:28:28.793Z,25.38
2023-01-17T01:31:14.487Z,21.98
2023-01-17T01:33:43.135Z,22.55
2023-01-17T01:36:10.418Z,54.97
2023-01-17T01:38:38.145Z,30.95
2023-01-17T01:41:05.848Z,28.42
2023-01-17T01:43:44.885Z,34.65
2023-01-17T01:46:19.009Z,27.88
2023-01-17T01:48:49.151Z,25.98
2023-01-17T01:51:22.593Z,27.88
2023-01-17T01:53:53.973Z,31.42
2023-01-17T01:56:23.579Z,30.95
2023-01-17T01:58:53.233Z,29.15
2023-01-17T02:01:20.826Z,27.23
2023-01-17T02:03:49.423Z,23.92
2023-01-17T02:06:30.463Z,27.98
2023-01-17T02:09:02.564Z,29.75
2023-01-17T02:11:30.527Z,27.27
2023-01-17T02:13:57.973Z,30.98
2023-01-17T02:16:44.216Z,37.25
2023-01-17T02:22:15.737Z,31.58
2023-01-17T02:25:15.167Z,38.08
2023-01-17T02:28:06.870Z,33.55
2023-01-17T02:30:42.125Z,34.88
2023-01-17T02:33:20.785Z,35.85
2023-01-17T02:36:07.805Z,49.45
2023-01-17T02:39:03.920Z,43.53
2023-01-17T02:41:39.316Z,43.45
2023-01-17T02:44:10.159Z,44.67
2023-01-17T02:46:52.019Z,47.38
2023-01-17T02:49:22.311Z,45.60
2023-01-17T02:52:26.889Z,52.80
2023-01-17T02:55:22.798Z,50.35
2023-01-17T02:58:02.527Z,41.40
2023-01-17T03:00:43.763Z,47.17
2023-01-17T03:03:20.256Z,42.90
2023-01-17T03:08:43.109Z,52.38
2023-01-17T03:11:11.215Z,38.30
2023-01-17T03:13:39.054Z,39.38
2023-01-17T03:16:28.181Z,37.47
2023-01-17T03:18:55.694Z,40.60
2023-01-17T03:21:24.102Z,37.97
2023-01-17T03:23:51.851Z,38.53
2023-01-17T03:26:19.251Z,41.30
2023-01-17T03:28:46.877Z,36.30
2023-01-17T03:31:16.124Z,37.53
2023-01-17T03:33:44.008Z,34.75
2023-01-17T03:36:12.289Z,40.00
2023-01-17T03:38:39.997Z,37.20
2023-01-17T03:41:07.722Z,35.67
2023-01-17T03:43:38.993Z,38.55
2023-01-17T03:46:17.465Z,38.95
2023-01-17T03:48:45.054Z,40.45
2023-01-17T03:51:12.195Z,41.55
2023-01-17T03:53:39.633Z,43.65
2023-01-17T03:56:07.212Z,56.58
2023-01-17T03:58:34.731Z,58.33
2023-01-17T04:01:02.086Z,64.57
2023-01-17T04:03:32.356Z,48.08
2023-01-17T04:05:59.575Z,42.70
2023-01-17T04:08:27.168Z,41.58
2023-01-17T04:10:54.276Z,42.33
2023-01-17T04:13:21.792Z,48.92
2023-01-17T04:15:51.505Z,49.13
2023-01-17T04:18:20.611Z,45.63
2023-01-17T04:20:48.080Z,44.97
2023-01-17T04:23:15.617Z,42.65
2023-01-17T04:25:42.819Z,46.72
2023-01-17T04:28:13.444Z,49.00
2023-01-17T04:30:40.749Z,60.13
2023-01-17T04:33:08.291Z,67.05
2023-01-17T04:35:36.127Z,77.60
2023-01-17T04:38:03.728Z,75.88
2023-01-17T04:40:30.902Z,73.22
2023-01-17T04:42:58.879Z,70.40
2023-01-17T04:45:26.284Z,59.97
2023-01-17T04:47:53.742Z,59.72
2023-01-17T04:50:20.939Z,55.38
2023-01-17T04:52:48.492Z,53.78
2023-01-17T04:55:15.796Z,54.42
2023-01-17T04:57:43.385Z,60.78
2023-01-17T05:00:11.868Z,63.40
2023-01-17T05:02:39.953Z,65.72
2023-01-17T05:05:07.881Z,75.05
2023-01-17T05:07:35.917Z,74.15
2023-01-17T05:10:03.476Z,90.95
2023-01-17T05:12:31.256Z,95.18
2023-01-17T05:14:58.439Z,98.22
2023-01-17T05:17:25.897Z,100.93
2023-01-17T05:19:53.078Z,97.75
2023-01-17T05:22:20.587Z,105.07
2023-01-17T05:24:51.029Z,113.20
2023-01-17T05:27:18.502Z,96.22
2023-01-17T05:29:45.777Z,77.60
2023-01-17T05:32:13.252Z,78.65
2023-01-17T05:34:40.447Z,77.53
2023-01-17T05:37:07.905Z,79.50
2023-01-17T05:39:35.012Z,72.35
2023-01-17T05:42:02.530Z,77.05
2023-01-17T05:44:29.753Z,85.53
2023-01-17T05:46:57.218Z,83.68
2023-01-17T05:49:24.483Z,87.13
2023-01-17T05:51:54.686Z,69.85
2023-01-17T05:54:22.080Z,52.72
2023-01-17T05:56:49.611Z,51.22
2023-01-17T05:59:28.595Z,51.33
2023-01-17T06:02:03.776Z,58.72
2023-01-17T06:04:31.154Z,65.18
2023-01-17T06:06:58.715Z,64.32
2023-01-17T06:09:25.891Z,66.90
2023-01-17T06:11:53.349Z,67.20
2023-01-17T06:14:20.479Z,67.07
2023-01-17T06:16:48.043Z,65.78
2023-01-17T06:19:15.189Z,64.75
2023-01-17T06:21:42.665Z,65.82
2023-01-17T06:24:09.811Z,65.85
2023-01-17T06:26:37.299Z,64.13
2023-01-17T06:29:04.555Z,64.35
2023-01-17T06:31:32.195Z,72.22
2023-01-17T06:34:03.263Z,77.30
2023-01-17T06:36:32.954Z,93.80
2023-01-17T06:39:00.142Z,100.35
2023-01-17T06:41:27.829Z,113.28
2023-01-17T06:43:55.832Z,88.82
2023-01-17T06:46:23.567Z,85.85
2023-01-17T06:48:50.775Z,74.60
2023-01-17T06:51:18.453Z,81.63
2023-01-17T06:53:45.665Z,73.32
2023-01-17T06:56:13.194Z,76.47
2023-01-17T06:58:40.796Z,65.57
2023-01-17T07:01:13.065Z,77.00
2023-01-17T07:03:40.489Z,67.82
2023-01-17T07:06:09.697Z,66.78
2023-01-17T07:08:37.449Z,87.35
2023-01-17T07:11:08.078Z,88.32
2023-01-17T07:13:36.877Z,192.93
2023-01-17T07:16:05.198Z,143.00
2023-01-17T07:18:33.383Z,130.60
2023-01-17T07:21:01.273Z,105.78
2023-01-17T07:23:31.331Z,100.40
2023-01-17T07:26:00.660Z,99.47
2023-01-17T07:28:28.853Z,96.75
2023-01-17T07:30:56.782Z,112.15
2023-01-17T07:33:24.267Z,97.25
2023-01-17T07:35:51.811Z,103.20
2023-01-17T07:38:20.246Z,95.22
2023-01-17T07:40:47.721Z,90.75
2023-01-17T07:43:15.052Z,92.22
2023-01-17T07:45:44.694Z,108.70
2023-01-17T07:48:12.668Z,107.28
2023-01-17T07:50:40.403Z,102.78
2023-01-17T07:53:07.856Z,99.15
2023-01-17T07:55:35.640Z,95.65
2023-01-17T07:58:03.250Z,96.68
2023-01-17T08:00:30.941Z,100.80
2023-01-17T08:03:00.165Z,89.97
2023-01-17T08:05:30.835Z,83.05
2023-01-17T08:07:58.085Z,88.55
2023-01-17T08:10:25.617Z,87.38
2023-01-17T08:12:53.051Z,80.82
2023-01-17T08:15:20.603Z,79.43
2023-01-17T08:17:49.676Z,78.53
2023-01-17T08:20:17.296Z,71.53
2023-01-17T08:22:44.549Z,68.40
2023-01-17T08:25:12.846Z,58.42
2023-01-17T08:27:40.356Z,59.53
2023-01-17T08:30:09.102Z,62.33
2023-01-17T08:32:36.336Z,60.97
2023-01-17T08:35:04.011Z,66.28
2023-01-17T08:37:31.217Z,92.95
2023-01-17T08:39:58.732Z,85.32
2023-01-17T08:42:26.166Z,76.68
2023-01-17T08:44:53.763Z,70.97
2023-01-17T08:47:20.989Z,69.65
2023-01-17T08:49:48.517Z,74.38
2023-01-17T08:52:15.828Z,77.45
2023-01-17T08:54:43.301Z,64.28
2023-01-17T08:57:10.607Z,61.45
2023-01-17T08:59:38.176Z,60.05
2023-01-17T09:02:14.950Z,66.78
2023-01-17T09:04:50.114Z,71.53
2023-01-17T09:07:19.429Z,69.20
2023-01-17T09:09:47.471Z,67.53
2023-01-17T09:12:14.948Z,71.05
2023-01-17T09:14:42.468Z,72.72
2023-01-17T09:17:09.850Z,70.75
2023-01-17T09:19:39.761Z,236.43
2023-01-17T09:22:08.032Z,145.60
2023-01-17T09:24:36.548Z,104.85
2023-01-17T09:27:04.299Z,204.30
2023-01-17T09:29:32.415Z,101.82
2023-01-17T09:32:00.978Z,130.23
2023-01-17T09:34:28.726Z,134.48
2023-01-17T09:36:57.112Z,124.03
2023-01-17T09:39:24.847Z,124.70
2023-01-17T09:42:17.086Z,119.80
2023-01-17T09:44:53.353Z,112.57
2023-01-17T09:47:45.258Z,112.68
2023-01-17T09:50:31.779Z,104.78
2023-01-17T09:53:03.969Z,88.45
2023-01-17T09:55:37.395Z,91.03
2023-01-17T09:58:21.570Z,91.22
2023-01-17T10:01:10.383Z,74.47
2023-01-17T10:03:51.206Z,56.35
2023-01-17T10:06:39.790Z,52.22
2023-01-17T10:09:42.294Z,51.38
2023-01-17T10:12:19.260Z,50.90
2023-01-17T10:14:58.522Z,49.72
2023-01-17T10:17:32.103Z,51.80
2023-01-17T10:20:26.798Z,52.03
2023-01-17T10:23:11.747Z,82.13
2023-01-17T10:25:43.172Z,67.20
2023-01-17T10:28:17.926Z,56.75
2023-01-17T10:30:49.553Z,65.15
2023-01-17T10:33:27.158Z,56.55
2023-01-17T10:35:59.325Z,54.88
2023-01-17T10:38:35.238Z,58.60
2023-01-17T10:41:14.959Z,50.17
2023-01-17T10:44:02.109Z,29.00
2023-01-17T10:46:38.625Z,32.00
2023-01-17T10:49:17.427Z,27.45
2023-01-17T10:52:00.411Z,38.92
2023-01-17T10:54:38.403Z,38.50
2023-01-17T10:57:05.791Z,45.08
2023-01-17T10:59:35.401Z,30.75
2023-01-17T11:02:10.587Z,42.20
2023-01-17T11:04:41.319Z,47.53
2023-01-17T11:07:17.647Z,42.70
2023-01-17T11:09:57.100Z,34.85
2023-01-17T11:12:41.221Z,36.95
2023-01-17T11:15:08.811Z,33.25
2023-01-17T11:17:53.258Z,34.92
2023-01-17T11:20:32.937Z,34.67
2023-01-17T11:23:15.347Z,31.40
2023-01-17T11:26:02.579Z,29.42
2023-01-17T11:28:35.632Z,32.17
2023-01-17T11:31:08.043Z,25.63
2023-01-17T11:33:45.362Z,25.35
2023-01-17T11:36:40.667Z,24.35
2023-01-17T11:39:19.854Z,24.50
2023-01-17T11:41:48.385Z,26.77
2023-01-17T11:44:33.252Z,27.58
2023-01-17T11:47:06.954Z,25.92
2023-01-17T11:49:34.384Z,24.00
2023-01-17T11:52:19.448Z,43.55
2023-01-17T11:54:48.821Z,21.48
2023-01-17T11:57:35.385Z,18.92
2023-01-17T12:03:17.155Z,16.02
2023-01-17T12:06:09.398Z,12.48
2023-01-17T12:08:43.913Z,13.98
2023-01-17T12:11:26.533Z,14.15
2023-01-17T12:14:15.226Z,16.30
2023-01-17T12:16:52.360Z,14.93
2023-01-17T12:19:39.088Z,20.90
2023-01-17T12:22:29.592Z,19.75
2023-01-17T12:25:15.726Z,19.02
2023-01-17T12:27:57.755Z,22.48
2023-01-17T12:30:46.599Z,20.77
2023-01-17T12:33:20.927Z,16.70
2023-01-17T12:35:53.688Z,14.48
2023-01-17T12:38:32.901Z,16.02
2023-01-17T12:41:10.432Z,13.68
2023-01-17T12:43:41.282Z,14.98
2023-01-17T12:46:21.187Z,13.88
2023-01-17T12:48:57.278Z,24.50
2023-01-17T12:51:33.134Z,21.58
2023-01-17T12:54:12.549Z,34.00
2023-01-17T12:56:49.277Z,20.25
2023-01-17T12:59:29.499Z,13.18
2023-01-17T13:02:01.605Z,16.30
2023-01-17T13:04:57.413Z,19.05
2023-01-17T13:07:28.902Z,21.13
2023-01-17T13:10:05.453Z,18.50
2023-01-17T13:12:34.878Z,13.45
2023-01-17T13:15:10.160Z,11.40
2023-01-17T13:17:49.536Z,11.02
2023-01-17T13:20:27.252Z,12.50
2023-01-17T13:23:03.635Z,13.20
2023-01-17T13:28:42.088Z,12.47
2023-01-17T13:31:25.664Z,10.02
2023-01-17T13:34:11.847Z,14.35
2023-01-17T13:36:46.041Z,10.23
2023-01-17T13:39:33.287Z,12.10
2023-01-17T13:42:41.692Z,8.95
2023-01-17T13:45:20.984Z,13.48
2023-01-17T13:47:48.555Z,13.00
2023-01-17T13:50:40.836Z,7.03
2023-01-17T13:53:35.952Z,9.68
2023-01-17T13:56:13.846Z,7.35
2023-01-17T13:58:57.838Z,8.68
2023-01-17T14:01:25.446Z,6.75
2023-01-17T14:03:52.789Z,5.88
2023-01-17T14:06:30.519Z,12.32
2023-01-17T14:09:12.885Z,29.13
2023-01-17T14:12:11.673Z,7.57
2023-01-17T14:14:42.009Z,6.78
2023-01-17T14:17:28.328Z,3.50
2023-01-17T14:19:57.841Z,4.82
2023-01-17T14:22:28.229Z,5.80
2023-01-17T14:25:01.468Z,5.80
2023-01-17T14:27:39.240Z,7.25
2023-01-17T14:30:20.691Z,45.88
2023-01-17T14:33:08.947Z,35.00
2023-01-17T14:35:40.627Z,23.10
2023-01-17T14:38:31.838Z,34.20
2023-01-17T14:41:03.565Z,24.15
2023-01-17T14:43:34.933Z,42.63
2023-01-17T14:46:06.777Z,20.48
2023-01-17T14:48:35.356Z,23.92
2023-01-17T14:51:13.172Z,21.40
2023-01-17T14:53:52.297Z,23.92
2023-01-17T14:56:19.570Z,55.17
2023-01-17T14:58:47.071Z,70.38
2023-01-17T15:01:20.025Z,56.33
2023-01-17T15:03:51.992Z,61.85
2023-01-17T15:06:28.120Z,68.95
2023-01-17T15:08:58.562Z,45.30
2023-01-17T15:11:30.409Z,36.17
2023-01-17T15:14:01.873Z,37.33
2023-01-17T15:16:36.713Z,36.45
2023-01-17T15:19:15.375Z,110.93
2023-01-17T15:21:44.655Z,110.25
2023-01-17T15:24:28.938Z,115.82
2023-01-17T15:26:56.764Z,100.05
2023-01-17T15:29:31.103Z,83.43
2023-01-17T15:32:01.525Z,76.88
2023-01-17T15:34:36.423Z,88.38
2023-01-17T15:37:08.916Z,135.32
2023-01-17T15:39:40.591Z,117.57
2023-01-17T15:42:20.011Z,96.40
2023-01-17T15:44:53.816Z,92.55
2023-01-17T15:47:38.917Z,95.03
2023-01-17T15:50:23.808Z,111.07
2023-01-17T15:53:02.744Z,120.70
2023-01-17T15:55:38.922Z,139.23
2023-01-17T15:58:28.113Z,152.13
2023-01-17T16:00:57.244Z,143.07
2023-01-17T16:03:30.201Z,135.73
2023-01-17T16:06:00.711Z,112.03
2023-01-17T16:08:40.281Z,119.35
2023-01-17T16:11:11.742Z,130.60
2023-01-17T16:13:42.380Z,158.50
2023-01-17T16:16:26.999Z,144.15
2023-01-17T16:19:02.365Z,180.43
2023-01-17T16:21:31.625Z,192.38
2023-01-17T16:24:00.195Z,157.93
2023-01-17T16:26:29.487Z,115.72
2023-01-17T16:28:57.183Z,126.30
2023-01-17T16:31:24.968Z,140.20
2023-01-17T16:33:52.389Z,166.32
2023-01-17T16:36:21.356Z,190.98
2023-01-17T16:38:50.480Z,206.63
2023-01-17T16:41:18.891Z,220.40
2023-01-17T16:43:46.148Z,217.02
2023-01-17T16:46:15.127Z,208.63
2023-01-17T16:48:42.775Z,214.85
2023-01-17T16:51:10.356Z,224.20
2023-01-17T16:53:37.870Z,221.18
2023-01-17T16:56:15.092Z,240.07
2023-01-17T16:58:42.466Z,206.88
2023-01-17T17:01:16.023Z,239.85
2023-01-17T17:03:44.059Z,191.30
2023-01-17T17:06:12.292Z,231.95
2023-01-17T17:08:40.119Z,210.07
2023-01-17T17:11:14.550Z,220.50
2023-01-17T17:13:43.612Z,196.93
2023-01-17T17:16:22.943Z,181.95
2023-01-17T17:19:02.580Z,168.30
2023-01-17T17:21:32.204Z,171.63
2023-01-17T17:24:01.969Z,153.07
2023-01-17T17:26:36.971Z,143.93
2023-01-17T17:29:05.615Z,123.22
2023-01-17T17:31:33.675Z,60.58
2023-01-17T17:34:02.357Z,85.10
2023-01-17T17:36:30.851Z,62.13
2023-01-17T17:38:58.563Z,69.63
2023-01-17T17:41:34.408Z,63.88
2023-01-17T17:44:03.201Z,65.65
2023-01-17T17:46:31.953Z,55.90
2023-01-17T17:48:59.948Z,63.97
2023-01-17T17:51:33.364Z,61.67
2023-01-17T17:54:03.095Z,64.38
2023-01-17T17:56:33.083Z,62.35
2023-01-17T17:59:01.381Z,68.63
2023-01-17T18:01:29.069Z,52.78
2023-01-17T18:04:00.965Z,62.22
2023-01-17T18:06:28.684Z,55.08
2023-01-17T18:08:56.007Z,69.63
2023-01-17T18:11:26.222Z,58.10
2023-01-17T18:13:55.685Z,75.55
2023-01-17T18:16:29.526Z,54.65
2023-01-17T18:18:58.665Z,58.28
2023-01-17T18:21:29.072Z,60.80
2023-01-17T18:24:00.005Z,31.25
2023-01-17T18:26:33.244Z,24.80
2023-01-17T18:29:01.837Z,32.15
2023-01-17T18:31:33.737Z,39.75
2023-01-17T18:34:06.254Z,48.80
2023-01-17T18:36:35.074Z,48.42
2023-01-17T18:39:06.085Z,26.17
2023-01-17T18:41:34.784Z,25.92
2023-01-17T18:44:06.686Z,52.20
2023-01-17T18:46:35.173Z,34.80
2023-01-17T18:49:03.033Z,40.03
2023-01-17T18:51:34.702Z,23.63
2023-01-17T18:54:06.990Z,20.55
2023-01-17T18:56:35.349Z,15.82
2023-01-17T18:59:05.915Z,20.75
2023-01-17T19:01:35.930Z,12.32
2023-01-17T19:04:04.918Z,12.98
2023-01-17T19:06:37.357Z,11.60
2023-01-17T19:09:07.352Z,11.15
2023-01-17T19:11:36.945Z,12.80
2023-01-17T19:14:05.332Z,15.40
2023-01-17T19:16:36.415Z,12.82
2023-01-17T19:19:09.337Z,17.45
2023-01-17T19:21:40.032Z,14.20
2023-01-17T19:24:07.443Z,13.73
2023-01-17T19:26:34.930Z,16.20
2023-01-17T19:29:06.914Z,15.70
2023-01-17T19:31:39.822Z,13.07
2023-01-17T19:34:07.017Z,12.63
2023-01-17T19:36:37.451Z,11.65
2023-01-17T19:39:09.482Z,15.15
2023-01-17T19:41:44.761Z,17.05
2023-01-17T19:44:13.715Z,11.70
2023-01-17T19:46:43.251Z,8.68
2023-01-17T19:49:10.618Z,9.85
2023-01-17T19:51:39.796Z,12.60
2023-01-17T19:54:08.579Z,14.32
2023-01-17T19:56:36.850Z,14.05
2023-01-17T19:59:04.346Z,44.33
2023-01-17T20:01:33.693Z,17.75
2023-01-17T20:04:02.539Z,16.42
2023-01-17T20:06:33.098Z,17.08
2023-01-17T20:09:00.339Z,15.40
2023-01-17T20:11:28.749Z,19.77
2023-01-17T20:13:57.677Z,22.42
2023-01-17T20:16:27.491Z,17.23
2023-01-17T20:18:54.773Z,23.42
2023-01-17T20:21:24.895Z,18.65
2023-01-17T20:23:53.707Z,16.40
2023-01-17T20:26:31.251Z,15.75
2023-01-17T20:28:58.695Z,16.63
2023-01-17T20:31:27.069Z,15.15
2023-01-17T20:33:56.336Z,14.10
2023-01-17T20:36:26.095Z,17.75
2023-01-17T20:38:54.608Z,22.45
2023-01-17T20:41:24.304Z,16.67
2023-01-17T20:43:54.710Z,17.77
2023-01-17T20:46:25.673Z,18.10
2023-01-17T20:48:58.473Z,21.58
2023-01-17T20:51:27.903Z,23.92
2023-01-17T20:54:01.037Z,22.02
2023-01-17T20:56:31.448Z,24.98
2023-01-17T20:58:58.703Z,19.90
2023-01-17T21:01:26.333Z,13.77
2023-01-17T21:03:54.138Z,16.85
2023-01-17T21:06:24.417Z,17.73
2023-01-17T21:08:53.355Z,20.60
2023-01-17T21:11:24.440Z,14.65
2023-01-17T21:13:51.994Z,13.10
2023-01-17T21:16:23.098Z,12.48
2023-01-17T21:18:51.818Z,7.80
2023-01-17T21:21:24.438Z,8.25
2023-01-17T21:23:53.650Z,10.90
2023-01-17T21:26:22.688Z,14.02
2023-01-17T21:28:50.946Z,15.75
2023-01-17T21:31:26.865Z,18.58
2023-01-17T21:33:57.327Z,16.73
2023-01-17T21:36:30.929Z,21.20
2023-01-17T21:38:59.830Z,23.52
2023-01-17T21:41:32.381Z,19.38
2023-01-17T21:44:03.876Z,20.25
2023-01-17T21:46:31.475Z,19.00
2023-01-17T21:48:58.713Z,18.30
2023-01-17T21:51:46.268Z,17.60
2023-01-17T21:54:13.613Z,15.38
2023-01-17T21:57:00.059Z,15.90
2023-01-17T21:59:27.357Z,12.20
2023-01-17T22:01:54.937Z,12.68
2023-01-17T22:04:22.267Z,12.80
2023-01-17T22:06:49.717Z,16.02
2023-01-17T22:09:18.167Z,14.63
2023-01-17T22:11:45.669Z,12.27
2023-01-17T22:14:12.785Z,15.95
2023-01-17T22:16:40.658Z,15.15
2023-01-17T22:19:08.366Z,10.32
2023-01-17T22:21:36.701Z,13.07
2023-01-17T22:24:04.232Z,13.40
2023-01-17T22:26:33.073Z,13.27
2023-01-17T22:29:01.767Z,14.35
2023-01-17T22:31:29.370Z,13.23
2023-01-17T22:33:59.632Z,11.52
2023-01-17T22:36:27.917Z,12.00
2023-01-17T22:38:55.150Z,10.90
2023-01-17T22:41:25.707Z,9.98
2023-01-17T22:43:57.009Z,7.78
2023-01-17T22:46:27.972Z,4.72
2023-01-17T22:48:56.706Z,3.60
2023-01-17T22:51:26.508Z,4.07
2023-01-17T22:53:59.135Z,4.00
2023-01-17T22:56:32.262Z,4.22
2023-01-17T22:59:01.088Z,4.18
2023-01-17T23:01:30.748Z,3.03
2023-01-17T23:04:00.628Z,4.13
2023-01-17T23:06:37.141Z,5.85
2023-01-17T23:09:10.875Z,10.35
2023-01-17T23:11:45.167Z,12.05
2023-01-17T23:14:52.840Z,15.95
2023-01-17T23:17:40.623Z,18.85
2023-01-17T23:20:10.213Z,21.58
2023-01-17T23:22:37.987Z,23.63
2023-01-17T23:25:07.648Z,20.77
2023-01-17T23:28:04.408Z,15.15
2023-01-17T23:30:40.395Z,11.93
2023-01-17T23:33:13.046Z,7.90
2023-01-17T23:35:42.918Z,7.43
2023-01-17T23:38:34.143Z,6.10
2023-01-17T23:41:23.207Z,6.65
2023-01-17T23:43:52.430Z,6.75
2023-01-17T23:46:20.124Z,15.02
2023-01-17T23:48:48.098Z,8.18
2023-01-17T23:51:16.302Z,13.35
2023-01-17T23:53:43.768Z,8.18
2023-01-17T23:56:14.805Z,7.25
2023-01-17T23:58:42.573Z,8.02
